createdAt,value
2022-10-19T00:00:17.425Z,12.96
2022-10-19T00:01:17.423Z,12.98
2022-10-19T00:02:17.547Z,12.98
2022-10-19T00:03:20.748Z,12.99
2022-10-19T00:04:17.391Z,12.99
2022-10-19T00:05:17.381Z,12.99
2022-10-19T00:06:17.376Z,12.99
2022-10-19T00:07:17.347Z,12.98
2022-10-19T00:08:17.343Z,12.99
2022-10-19T00:09:17.328Z,12.98
2022-10-19T00:10:17.321Z,12.99
2022-10-19T00:11:17.436Z,12.99
2022-10-19T00:12:17.302Z,12.96
2022-10-19T00:13:17.286Z,12.96
2022-10-19T00:14:17.277Z,12.98
2022-10-19T00:15:17.269Z,12.98
2022-10-19T00:16:17.315Z,12.98
2022-10-19T00:17:17.244Z,12.98
2022-10-19T00:18:17.236Z,12.98
2022-10-19T00:19:17.229Z,12.98
2022-10-19T00:20:17.214Z,12.96
2022-10-19T00:21:17.220Z,12.98
2022-10-19T00:22:17.195Z,12.96
2022-10-19T00:23:17.219Z,12.98
2022-10-19T00:24:17.174Z,12.94
2022-10-19T00:25:17.204Z,12.95
2022-10-19T00:26:17.166Z,12.92
2022-10-19T00:27:17.143Z,12.94
2022-10-19T00:28:17.131Z,12.91
2022-10-19T00:29:17.136Z,12.94
2022-10-19T00:30:17.107Z,12.89
2022-10-19T00:31:17.118Z,12.89
2022-10-19T00:32:17.089Z,12.91
2022-10-19T00:33:17.081Z,12.89
2022-10-19T00:34:17.066Z,12.91
2022-10-19T00:35:17.062Z,12.89
2022-10-19T00:36:17.059Z,12.89
2022-10-19T00:37:17.038Z,12.89
2022-10-19T00:38:17.028Z,12.89
2022-10-19T00:39:17.018Z,12.91
2022-10-19T00:40:17.004Z,12.89
2022-10-19T00:41:17.017Z,12.88
2022-10-19T00:42:16.985Z,12.89
2022-10-19T00:43:16.976Z,12.88
2022-10-19T00:44:16.960Z,12.88
2022-10-19T00:45:16.959Z,12.91
2022-10-19T00:46:16.962Z,12.92
2022-10-19T00:47:16.931Z,12.92
2022-10-19T00:48:16.920Z,12.94
2022-10-19T00:49:16.914Z,12.91
2022-10-19T00:50:16.912Z,12.94
2022-10-19T00:51:16.904Z,12.94
2022-10-19T00:52:16.877Z,12.95
2022-10-19T00:53:16.873Z,12.95
2022-10-19T00:54:16.856Z,12.96
2022-10-19T00:55:16.853Z,12.96
2022-10-19T00:56:16.857Z,12.99
2022-10-19T00:57:16.830Z,12.96
2022-10-19T00:58:16.815Z,12.96
2022-10-19T00:59:16.808Z,12.96
2022-10-19T01:00:16.795Z,12.95
2022-10-19T01:01:16.843Z,12.95
2022-10-19T01:02:16.798Z,12.94
2022-10-19T01:03:16.770Z,12.91
2022-10-19T01:04:16.751Z,12.91
2022-10-19T01:05:16.747Z,12.91
2022-10-19T01:06:16.757Z,12.88
2022-10-19T01:07:16.733Z,12.88
2022-10-19T01:08:16.709Z,12.88
2022-10-19T01:09:16.706Z,12.91
2022-10-19T01:10:16.692Z,12.89
2022-10-19T01:11:16.704Z,12.87
2022-10-19T01:12:16.668Z,12.87
2022-10-19T01:13:16.663Z,12.87
2022-10-19T01:14:16.651Z,12.88
2022-10-19T01:15:16.645Z,12.87
2022-10-19T01:16:16.644Z,12.88
2022-10-19T01:17:16.638Z,12.87
2022-10-19T01:18:16.612Z,12.87
2022-10-19T01:19:16.601Z,12.88
2022-10-19T01:20:16.599Z,12.87
2022-10-19T01:21:16.591Z,12.87
2022-10-19T01:22:16.566Z,12.88
2022-10-19T01:23:16.557Z,12.88
2022-10-19T01:24:16.547Z,12.88
2022-10-19T01:25:16.540Z,12.89
2022-10-19T01:26:16.537Z,12.91
2022-10-19T01:27:16.518Z,12.89
2022-10-19T01:28:16.504Z,12.88
2022-10-19T01:29:16.494Z,12.89
2022-10-19T01:30:16.483Z,12.91
2022-10-19T01:31:16.490Z,12.91
2022-10-19T01:32:16.471Z,12.92
2022-10-19T01:33:16.454Z,12.91
2022-10-19T01:34:16.461Z,12.91
2022-10-19T01:35:16.435Z,12.91
2022-10-19T01:36:16.436Z,12.91
2022-10-19T01:37:16.416Z,12.91
2022-10-19T01:38:16.409Z,12.89
2022-10-19T01:39:16.398Z,12.89
2022-10-19T01:40:16.376Z,12.88
2022-10-19T01:41:16.386Z,12.89
2022-10-19T01:42:16.353Z,12.87
2022-10-19T01:43:16.351Z,12.87
2022-10-19T01:44:16.336Z,12.89
2022-10-19T01:45:16.366Z,12.88
2022-10-19T01:46:16.327Z,12.88
2022-10-19T01:47:16.308Z,12.87
2022-10-19T01:48:16.297Z,12.85
2022-10-19T01:49:16.297Z,12.84
2022-10-19T01:50:16.281Z,12.84
2022-10-19T01:51:16.283Z,12.81
2022-10-19T01:52:16.254Z,12.81
2022-10-19T01:53:16.248Z,12.84
2022-10-19T01:54:16.229Z,12.84
2022-10-19T01:55:16.228Z,12.85
2022-10-19T01:56:16.236Z,12.87
2022-10-19T01:57:16.204Z,12.85
2022-10-19T01:58:16.190Z,12.87
2022-10-19T01:59:16.189Z,12.87
2022-10-19T02:00:16.166Z,12.84
2022-10-19T02:01:16.189Z,12.85
2022-10-19T02:02:16.170Z,12.87
2022-10-19T02:03:16.149Z,12.88
2022-10-19T02:04:16.124Z,12.87
2022-10-19T02:05:16.124Z,12.88
2022-10-19T02:06:16.116Z,12.87
2022-10-19T02:07:16.101Z,12.87
2022-10-19T02:08:16.083Z,12.85
2022-10-19T02:09:16.090Z,12.88
2022-10-19T02:10:16.068Z,12.88
2022-10-19T02:11:16.071Z,12.87
2022-10-19T02:12:16.048Z,12.87
2022-10-19T02:13:16.035Z,12.85
2022-10-19T02:14:16.022Z,12.85
2022-10-19T02:15:16.016Z,12.85
2022-10-19T02:16:16.018Z,12.84
2022-10-19T02:17:15.994Z,12.85
2022-10-19T02:18:15.981Z,12.84
2022-10-19T02:19:16.033Z,12.84
2022-10-19T02:20:15.962Z,12.84
2022-10-19T02:21:15.967Z,12.84
2022-10-19T02:22:15.954Z,12.81
2022-10-19T02:23:15.939Z,12.84
2022-10-19T02:24:15.920Z,12.81
2022-10-19T02:25:15.929Z,12.80
2022-10-19T02:26:15.908Z,12.80
2022-10-19T02:27:15.890Z,12.79
2022-10-19T02:28:15.984Z,12.80
2022-10-19T02:29:15.873Z,12.76
2022-10-19T02:30:15.860Z,12.77
2022-10-19T02:31:15.860Z,12.74
2022-10-19T02:32:15.833Z,12.74
2022-10-19T02:33:15.834Z,12.74
2022-10-19T02:34:15.811Z,12.74
2022-10-19T02:35:15.807Z,12.76
2022-10-19T02:36:15.805Z,12.71
2022-10-19T02:37:15.883Z,12.73
2022-10-19T02:38:15.770Z,12.74
2022-10-19T02:39:15.777Z,12.73
2022-10-19T02:40:15.749Z,12.74
2022-10-19T02:41:15.756Z,12.73
2022-10-19T02:42:15.739Z,12.71
2022-10-19T02:43:15.726Z,12.73
2022-10-19T02:44:15.717Z,12.71
2022-10-19T02:45:15.713Z,12.70
2022-10-19T02:46:15.701Z,12.70
2022-10-19T02:47:15.680Z,12.73
2022-10-19T02:48:15.667Z,12.70
2022-10-19T02:49:15.667Z,12.73
2022-10-19T02:50:15.648Z,12.71
2022-10-19T02:51:15.655Z,12.73
2022-10-19T02:52:15.638Z,12.74
2022-10-19T02:53:15.620Z,12.71
2022-10-19T02:54:15.604Z,12.74
2022-10-19T02:55:15.600Z,12.74
2022-10-19T02:56:15.595Z,12.73
2022-10-19T02:57:15.580Z,12.73
2022-10-19T02:58:15.574Z,12.71
2022-10-19T02:59:15.559Z,12.70
2022-10-19T03:00:15.542Z,12.67
2022-10-19T03:01:15.599Z,12.69
2022-10-19T03:02:15.521Z,12.69
2022-10-19T03:03:15.518Z,12.70
2022-10-19T03:04:15.502Z,12.70
2022-10-19T03:05:15.494Z,12.67
2022-10-19T03:06:15.495Z,12.69
2022-10-19T03:07:15.474Z,12.67
2022-10-19T03:08:15.458Z,12.69
2022-10-19T03:09:15.456Z,12.69
2022-10-19T03:10:15.438Z,12.67
2022-10-19T03:11:15.468Z,12.67
2022-10-19T03:12:15.417Z,12.67
2022-10-19T03:13:15.417Z,12.69
2022-10-19T03:14:15.400Z,12.67
2022-10-19T03:15:15.398Z,12.67
2022-10-19T03:16:15.389Z,12.69
2022-10-19T03:17:15.383Z,12.67
2022-10-19T03:18:15.361Z,12.66
2022-10-19T03:19:15.361Z,12.66
2022-10-19T03:20:15.336Z,12.66
2022-10-19T03:21:15.343Z,12.62
2022-10-19T03:22:15.318Z,12.61
2022-10-19T03:23:15.306Z,12.62
2022-10-19T03:24:15.313Z,12.61
2022-10-19T03:25:15.286Z,12.61
2022-10-19T03:26:15.306Z,12.59
2022-10-19T03:27:22.331Z,12.58
2022-10-19T03:28:17.865Z,12.55
2022-10-19T03:29:15.247Z,12.55
2022-10-19T03:30:15.234Z,12.54
2022-10-19T03:31:15.234Z,12.51
2022-10-19T03:32:15.207Z,12.51
2022-10-19T03:33:15.279Z,12.46
2022-10-19T03:34:15.220Z,12.48
2022-10-19T03:35:15.185Z,12.48
2022-10-19T03:36:15.185Z,12.46
2022-10-19T03:37:15.176Z,12.48
2022-10-19T03:38:15.151Z,12.48
2022-10-19T03:39:15.147Z,12.49
2022-10-19T03:40:15.125Z,12.49
2022-10-19T03:41:15.142Z,12.49
2022-10-19T03:42:15.105Z,12.49
2022-10-19T03:43:15.103Z,12.49
2022-10-19T03:44:15.082Z,12.49
2022-10-19T03:45:15.087Z,12.49
2022-10-19T03:46:15.072Z,12.51
2022-10-19T03:47:15.076Z,12.49
2022-10-19T03:48:15.042Z,12.49
2022-10-19T03:49:15.044Z,12.52
2022-10-19T03:50:15.047Z,12.51
2022-10-19T03:51:15.045Z,12.51
2022-10-19T03:52:15.005Z,12.49
2022-10-19T03:53:15.004Z,12.51
2022-10-19T03:54:15.009Z,12.49
2022-10-19T03:55:14.993Z,12.51
2022-10-19T03:56:14.971Z,12.51
2022-10-19T03:57:15.002Z,12.49
2022-10-19T03:58:14.936Z,12.49
2022-10-19T03:59:14.944Z,12.48
2022-10-19T04:00:14.925Z,12.48
2022-10-19T04:01:14.986Z,12.49
2022-10-19T04:02:14.898Z,12.46
2022-10-19T04:03:14.888Z,12.48
2022-10-19T04:04:14.887Z,12.46
2022-10-19T04:05:14.866Z,12.49
2022-10-19T04:06:17.064Z,12.48
2022-10-19T04:07:14.859Z,12.49
2022-10-19T04:08:14.838Z,12.48
2022-10-19T04:09:14.829Z,12.46
2022-10-19T04:10:14.825Z,12.49
2022-10-19T04:11:14.825Z,12.48
2022-10-19T04:12:14.796Z,12.46
2022-10-19T04:13:14.790Z,12.46
2022-10-19T04:14:22.774Z,12.44
2022-10-19T04:15:14.766Z,12.41
2022-10-19T04:16:14.769Z,12.41
2022-10-19T04:17:14.763Z,12.40
2022-10-19T04:18:14.727Z,12.38
2022-10-19T04:19:14.724Z,12.38
2022-10-19T04:20:14.705Z,12.36
2022-10-19T04:21:15.149Z,12.38
2022-10-19T04:22:14.686Z,12.38
2022-10-19T04:23:14.691Z,12.36
2022-10-19T04:24:14.675Z,12.37
2022-10-19T04:25:14.662Z,12.38
2022-10-19T04:26:14.669Z,12.36
2022-10-19T04:27:14.659Z,12.37
2022-10-19T04:28:14.622Z,12.37
2022-10-19T04:29:14.687Z,12.37
2022-10-19T04:30:14.616Z,12.37
2022-10-19T04:31:14.607Z,12.37
2022-10-19T04:32:14.589Z,12.36
2022-10-19T04:33:14.608Z,12.37
2022-10-19T04:34:14.566Z,12.37
2022-10-19T04:35:14.555Z,12.37
2022-10-19T04:36:14.567Z,12.36
2022-10-19T04:37:14.543Z,12.37
2022-10-19T04:38:14.582Z,12.37
2022-10-19T04:39:14.522Z,12.36
2022-10-19T04:40:15.085Z,12.36
2022-10-19T04:41:14.500Z,12.34
2022-10-19T04:42:14.489Z,12.38
2022-10-19T04:43:14.481Z,12.37
2022-10-19T04:44:14.527Z,12.37
2022-10-19T04:45:14.451Z,12.38
2022-10-19T04:46:14.495Z,12.36
2022-10-19T04:47:14.429Z,12.38
2022-10-19T04:48:15.212Z,12.38
2022-10-19T04:49:17.794Z,12.40
2022-10-19T04:50:14.433Z,12.38
2022-10-19T04:51:14.411Z,12.41
2022-10-19T04:52:14.382Z,12.38
2022-10-19T04:53:14.434Z,12.43
2022-10-19T04:54:14.369Z,12.41
2022-10-19T04:55:14.340Z,12.41
2022-10-19T04:56:14.399Z,12.40
2022-10-19T04:57:14.324Z,12.40
2022-10-19T04:58:14.316Z,12.40
2022-10-19T04:59:14.312Z,12.41
2022-10-19T05:00:14.301Z,12.40
2022-10-19T05:01:14.398Z,12.37
2022-10-19T05:02:14.277Z,12.38
2022-10-19T05:03:14.266Z,12.40
2022-10-19T05:04:14.254Z,12.38
2022-10-19T05:05:14.235Z,12.38
2022-10-19T05:06:14.247Z,12.38
2022-10-19T05:07:14.215Z,12.37
2022-10-19T05:08:14.215Z,12.40
2022-10-19T05:09:14.153Z,12.38
2022-10-19T05:10:14.141Z,12.40
2022-10-19T05:11:14.192Z,12.38
2022-10-19T05:12:14.172Z,12.40
2022-10-19T05:13:14.177Z,12.40
2022-10-19T05:14:14.244Z,12.40
2022-10-19T05:15:14.139Z,12.40
2022-10-19T05:16:14.180Z,12.41
2022-10-19T05:17:14.071Z,12.41
2022-10-19T05:18:14.055Z,12.41
2022-10-19T05:19:14.056Z,12.38
2022-10-19T05:20:14.028Z,12.40
2022-10-19T05:21:14.040Z,12.41
2022-10-19T05:22:14.013Z,12.38
2022-10-19T05:23:13.998Z,12.38
2022-10-19T05:24:13.997Z,12.31
2022-10-19T05:25:13.998Z,12.29
2022-10-19T05:26:13.977Z,12.30
2022-10-19T05:27:13.956Z,12.29
2022-10-19T05:28:13.967Z,12.26
2022-10-19T05:29:13.936Z,12.25
2022-10-19T05:30:13.934Z,12.23
2022-10-19T05:31:13.920Z,12.22
2022-10-19T05:32:13.914Z,12.19
2022-10-19T05:33:13.893Z,12.18
2022-10-19T05:34:13.897Z,12.13
2022-10-19T05:35:16.378Z,12.12
2022-10-19T05:36:13.880Z,12.08
2022-10-19T05:37:13.857Z,12.12
2022-10-19T05:38:13.841Z,12.07
2022-10-19T05:39:13.847Z,12.07
2022-10-19T05:40:13.829Z,12.05
2022-10-19T05:41:13.836Z,12.05
2022-10-19T05:42:13.804Z,12.05
2022-10-19T05:43:13.791Z,12.04
2022-10-19T05:44:13.792Z,12.04
2022-10-19T05:45:13.780Z,12.03
2022-10-19T05:46:13.772Z,12.01
2022-10-19T05:47:13.749Z,12.01
2022-10-19T05:48:13.761Z,12.01
2022-10-19T05:49:13.734Z,11.98
2022-10-19T05:50:13.717Z,11.97
2022-10-19T05:51:13.720Z,11.97
2022-10-19T05:52:13.700Z,11.96
2022-10-19T05:53:13.687Z,11.98
2022-10-19T05:54:13.677Z,11.98
2022-10-19T05:55:13.687Z,12.03
2022-10-19T05:56:13.665Z,12.05
2022-10-19T05:57:13.722Z,12.07
2022-10-19T05:58:13.631Z,12.08
2022-10-19T05:59:13.621Z,12.11
2022-10-19T06:00:13.635Z,12.11
2022-10-19T06:01:13.623Z,12.11
2022-10-19T06:02:13.649Z,12.16
2022-10-19T06:03:13.592Z,12.21
2022-10-19T06:04:13.618Z,12.25
2022-10-19T06:05:13.585Z,12.31
2022-10-19T06:06:13.557Z,12.36
2022-10-19T06:07:13.572Z,12.44
2022-10-19T06:08:13.530Z,12.51
2022-10-19T06:09:13.539Z,12.55
2022-10-19T06:10:13.519Z,12.61
2022-10-19T06:11:13.538Z,12.67
2022-10-19T06:12:15.758Z,12.66
2022-10-19T06:13:13.482Z,12.67
2022-10-19T06:14:13.465Z,12.66
2022-10-19T06:15:13.458Z,12.66
2022-10-19T06:16:13.500Z,12.67
2022-10-19T06:17:13.467Z,12.69
2022-10-19T06:18:13.428Z,12.71
2022-10-19T06:19:13.418Z,12.69
2022-10-19T06:20:13.400Z,12.67
2022-10-19T06:21:13.416Z,12.67
2022-10-19T06:22:13.386Z,12.67
2022-10-19T06:23:13.370Z,12.62
2022-10-19T06:24:13.391Z,12.63
2022-10-19T06:25:16.635Z,12.61
2022-10-19T06:26:13.370Z,12.61
2022-10-19T06:27:13.505Z,12.56
2022-10-19T06:28:13.323Z,12.58
2022-10-19T06:29:13.314Z,12.56
2022-10-19T06:30:13.386Z,12.54
2022-10-19T06:31:13.294Z,12.56
2022-10-19T06:32:13.282Z,12.54
2022-10-19T06:33:13.269Z,12.55
2022-10-19T06:34:13.342Z,12.55
2022-10-19T06:35:13.256Z,12.56
2022-10-19T06:36:13.238Z,12.55
2022-10-19T06:37:13.227Z,12.58
2022-10-19T06:38:13.220Z,12.55
2022-10-19T06:39:13.206Z,12.58
2022-10-19T06:40:13.250Z,12.59
2022-10-19T06:41:13.199Z,12.62
2022-10-19T06:42:13.211Z,12.61
2022-10-19T06:43:13.168Z,12.63
2022-10-19T06:44:13.160Z,12.63
2022-10-19T06:45:13.153Z,12.63
2022-10-19T06:46:13.133Z,12.66
2022-10-19T06:47:13.119Z,12.66
2022-10-19T06:48:13.119Z,12.67
2022-10-19T06:49:13.106Z,12.67
2022-10-19T06:50:13.103Z,12.69
2022-10-19T06:51:13.081Z,12.66
2022-10-19T06:52:13.070Z,12.62
2022-10-19T06:53:13.055Z,12.59
2022-10-19T06:54:13.149Z,12.59
2022-10-19T06:55:13.051Z,12.59
2022-10-19T06:56:13.027Z,12.63
2022-10-19T06:57:13.024Z,12.61
2022-10-19T06:58:13.040Z,12.61
2022-10-19T06:59:13.518Z,12.66
2022-10-19T07:00:13.009Z,12.63
2022-10-19T07:01:13.068Z,12.66
2022-10-19T07:02:12.964Z,12.66
2022-10-19T07:03:12.957Z,12.66
2022-10-19T07:04:12.946Z,12.63
2022-10-19T07:05:12.943Z,12.63
2022-10-19T07:06:12.930Z,12.61
2022-10-19T07:07:12.912Z,12.61
2022-10-19T07:08:12.950Z,12.61
2022-10-19T07:09:12.891Z,12.63
2022-10-19T07:10:12.952Z,12.70
2022-10-19T07:11:12.870Z,12.76
2022-10-19T07:12:12.865Z,12.91
2022-10-19T07:13:12.851Z,13.06
2022-10-19T07:14:12.841Z,13.17
2022-10-19T07:15:12.849Z,13.36
2022-10-19T07:16:16.105Z,13.50
2022-10-19T07:17:12.815Z,13.48
2022-10-19T07:18:12.805Z,13.43
2022-10-19T07:19:12.812Z,13.39
2022-10-19T07:20:12.779Z,13.44
2022-10-19T07:21:12.761Z,13.47
2022-10-19T07:22:18.603Z,13.50
2022-10-19T07:23:12.747Z,13.46
2022-10-19T07:24:12.742Z,13.51
2022-10-19T07:25:12.721Z,13.61
2022-10-19T07:26:12.735Z,13.83
2022-10-19T07:27:12.698Z,13.98
2022-10-19T07:28:12.694Z,13.96
2022-10-19T07:29:12.700Z,14.41
2022-10-19T07:30:12.694Z,14.35
2022-10-19T07:31:12.658Z,14.17
2022-10-19T07:32:12.657Z,14.13
2022-10-19T07:33:12.683Z,14.13
2022-10-19T07:34:12.646Z,14.08
2022-10-19T07:35:12.626Z,14.09
2022-10-19T07:36:12.667Z,14.06
2022-10-19T07:37:12.597Z,14.02
2022-10-19T07:38:12.591Z,14.02
2022-10-19T07:39:12.607Z,14.05
2022-10-19T07:40:12.593Z,14.26
2022-10-19T07:41:12.584Z,14.66
2022-10-19T07:42:12.641Z,14.52
2022-10-19T07:43:12.540Z,14.36
2022-10-19T07:44:15.542Z,14.41
2022-10-19T07:45:12.528Z,14.35
2022-10-19T07:46:12.514Z,14.24
2022-10-19T07:47:12.491Z,14.29
2022-10-19T07:48:12.486Z,15.49
2022-10-19T07:49:12.509Z,15.22
2022-10-19T07:50:12.462Z,14.86
2022-10-19T07:51:12.473Z,14.59
2022-10-19T07:52:12.450Z,14.48
2022-10-19T07:53:12.474Z,14.38
2022-10-19T07:54:12.463Z,14.21
2022-10-19T07:55:12.506Z,14.12
2022-10-19T07:56:12.465Z,14.11
2022-10-19T07:57:12.415Z,14.13
2022-10-19T07:58:12.425Z,14.17
2022-10-19T07:59:12.393Z,14.21
2022-10-19T08:00:12.357Z,14.20
2022-10-19T08:01:12.375Z,14.26
2022-10-19T08:02:12.474Z,14.23
2022-10-19T08:03:57.090Z,14.23
2022-10-19T08:04:59.430Z,14.09
2022-10-19T08:05:12.834Z,14.02
2022-10-19T08:06:12.344Z,13.96
2022-10-19T08:07:12.294Z,13.91
2022-10-19T08:08:12.320Z,13.88
2022-10-19T08:09:27.785Z,13.84
2022-10-19T08:10:12.301Z,13.81
2022-10-19T08:11:12.280Z,13.76
2022-10-19T08:12:15.068Z,13.73
2022-10-19T08:13:12.280Z,13.72
2022-10-19T08:14:12.261Z,13.65
2022-10-19T08:15:12.224Z,13.65
2022-10-19T08:16:12.234Z,13.66
2022-10-19T08:17:12.212Z,13.69
2022-10-19T08:18:12.221Z,13.80
2022-10-19T08:19:12.203Z,13.88
2022-10-19T08:20:12.237Z,13.93
2022-10-19T08:21:12.150Z,13.96
2022-10-19T08:22:12.155Z,13.96
2022-10-19T08:23:12.251Z,13.91
2022-10-19T08:24:12.263Z,13.90
2022-10-19T08:25:12.129Z,13.90
2022-10-19T08:26:12.128Z,13.99
2022-10-19T08:27:12.098Z,13.99
2022-10-19T08:28:12.145Z,13.99
2022-10-19T08:29:12.097Z,13.96
2022-10-19T08:30:12.060Z,13.96
2022-10-19T08:31:12.090Z,13.94
2022-10-19T08:32:12.091Z,13.99
2022-10-19T08:33:12.087Z,14.05
2022-10-19T08:34:12.085Z,14.05
2022-10-19T08:35:12.039Z,14.05
2022-10-19T08:36:12.029Z,14.01
2022-10-19T08:37:25.836Z,13.98
2022-10-19T08:38:12.060Z,14.01
2022-10-19T08:39:12.083Z,14.04
2022-10-19T08:40:11.951Z,14.01
2022-10-19T08:41:11.971Z,13.94
2022-10-19T08:42:11.940Z,13.93
2022-10-19T08:43:11.928Z,13.91
2022-10-19T08:44:11.975Z,13.88
2022-10-19T08:45:11.925Z,13.91
2022-10-19T08:46:11.904Z,13.94
2022-10-19T08:47:12.545Z,13.99
2022-10-19T08:48:11.913Z,14.08
2022-10-19T08:49:11.924Z,14.08
2022-10-19T08:50:11.846Z,14.08
2022-10-19T08:51:11.835Z,14.13
2022-10-19T08:52:11.827Z,14.17
2022-10-19T08:53:11.842Z,14.21
2022-10-19T08:54:11.858Z,14.20
2022-10-19T08:55:15.079Z,14.23
2022-10-19T08:56:12.478Z,14.24
2022-10-19T08:57:11.800Z,14.27
2022-10-19T08:58:11.773Z,14.34
2022-10-19T08:59:11.824Z,14.38
2022-10-19T09:00:11.761Z,14.45
2022-10-19T09:01:11.734Z,14.53
2022-10-19T09:02:11.833Z,14.53
2022-10-19T09:03:11.811Z,14.60
2022-10-19T09:04:11.700Z,14.71
2022-10-19T09:05:11.684Z,14.69
2022-10-19T09:06:11.673Z,14.71
2022-10-19T09:07:11.662Z,14.79
2022-10-19T09:08:16.719Z,14.94
2022-10-19T09:09:11.647Z,15.05
2022-10-19T09:10:11.626Z,15.23
2022-10-19T09:11:11.622Z,15.25
2022-10-19T09:12:11.623Z,15.23
2022-10-19T09:13:11.595Z,15.23
2022-10-19T09:14:11.589Z,15.18
2022-10-19T09:15:11.586Z,15.07
2022-10-19T09:16:11.560Z,14.94
2022-10-19T09:17:11.554Z,14.80
2022-10-19T09:18:11.538Z,14.75
2022-10-19T09:19:11.567Z,14.75
2022-10-19T09:20:11.549Z,14.75
2022-10-19T09:21:11.519Z,14.80
2022-10-19T09:22:11.559Z,14.80
2022-10-19T09:23:13.418Z,14.94
2022-10-19T09:24:11.490Z,15.03
2022-10-19T09:25:11.474Z,15.16
2022-10-19T09:26:11.461Z,15.19
2022-10-19T09:27:11.449Z,15.04
2022-10-19T09:28:17.470Z,14.97
2022-10-19T09:29:14.139Z,14.91
2022-10-19T09:30:11.411Z,14.82
2022-10-19T09:31:11.411Z,14.78
2022-10-19T09:32:11.395Z,14.79
2022-10-19T09:33:15.229Z,14.83
2022-10-19T09:34:11.371Z,14.93
2022-10-19T09:35:11.382Z,15.00
2022-10-19T09:36:22.281Z,15.05
2022-10-19T09:37:15.983Z,15.09
2022-10-19T09:38:11.394Z,15.12
2022-10-19T09:39:11.347Z,15.13
2022-10-19T09:40:11.317Z,15.12
2022-10-19T09:41:11.324Z,15.11
2022-10-19T09:42:11.284Z,15.11
2022-10-19T09:43:11.289Z,15.07
2022-10-19T09:44:11.318Z,15.09
2022-10-19T09:45:11.268Z,15.33
2022-10-19T09:46:19.446Z,15.28
2022-10-19T09:47:13.651Z,15.15
2022-10-19T09:48:13.101Z,15.28
2022-10-19T09:49:11.219Z,15.15
2022-10-19T09:50:11.199Z,15.01
2022-10-19T09:51:11.202Z,14.95
2022-10-19T09:52:11.198Z,15.31
2022-10-19T09:53:11.193Z,15.52
2022-10-19T09:54:11.160Z,15.62
2022-10-19T09:55:11.156Z,15.66
2022-10-19T09:56:11.137Z,15.66
2022-10-19T09:57:11.141Z,15.80
2022-10-19T09:58:11.118Z,15.85
2022-10-19T09:59:11.121Z,15.96
2022-10-19T10:00:11.096Z,16.04
2022-10-19T10:01:11.103Z,16.11
2022-10-19T10:02:11.087Z,16.23
2022-10-19T10:03:11.069Z,16.26
2022-10-19T10:04:11.055Z,16.17
2022-10-19T10:05:11.056Z,16.13
2022-10-19T10:06:11.037Z,16.07
2022-10-19T10:07:11.037Z,15.98
2022-10-19T10:08:11.015Z,15.89
2022-10-19T10:09:11.061Z,15.81
2022-10-19T10:10:10.993Z,15.74
2022-10-19T10:11:11.028Z,15.67
2022-10-19T10:12:10.978Z,15.64
2022-10-19T10:13:10.975Z,15.59
2022-10-19T10:14:10.949Z,15.56
2022-10-19T10:15:10.953Z,15.52
2022-10-19T10:16:10.930Z,15.46
2022-10-19T10:17:10.931Z,15.38
2022-10-19T10:18:10.905Z,15.35
2022-10-19T10:19:10.910Z,15.33
2022-10-19T10:20:10.886Z,15.31
2022-10-19T10:21:10.890Z,15.27
2022-10-19T10:22:10.872Z,15.27
2022-10-19T10:23:10.861Z,15.23
2022-10-19T10:24:10.887Z,15.20
2022-10-19T10:25:10.840Z,15.23
2022-10-19T10:26:10.823Z,15.25
2022-10-19T10:27:10.822Z,15.31
2022-10-19T10:28:10.818Z,15.34
2022-10-19T10:29:10.799Z,15.33
2022-10-19T10:30:10.779Z,15.34
2022-10-19T10:31:10.782Z,15.34
2022-10-19T10:32:10.766Z,15.35
2022-10-19T10:33:26.373Z,15.34
2022-10-19T10:34:22.675Z,15.37
2022-10-19T10:35:10.743Z,15.34
2022-10-19T10:36:10.728Z,15.35
2022-10-19T10:37:10.756Z,15.37
2022-10-19T10:38:10.699Z,15.41
2022-10-19T10:39:10.703Z,15.37
2022-10-19T10:40:10.690Z,15.35
2022-10-19T10:41:10.670Z,15.30
2022-10-19T10:42:10.673Z,15.33
2022-10-19T10:43:10.649Z,15.33
2022-10-19T10:44:10.805Z,15.31
2022-10-19T10:45:10.629Z,15.28
2022-10-19T10:46:10.616Z,15.31
2022-10-19T10:47:10.626Z,15.33
2022-10-19T10:48:10.625Z,15.38
2022-10-19T10:49:10.591Z,15.49
2022-10-19T10:50:10.581Z,15.62
2022-10-19T10:51:10.586Z,15.62
2022-10-19T10:52:10.560Z,15.74
2022-10-19T10:53:10.550Z,15.78
2022-10-19T10:54:10.543Z,15.78
2022-10-19T10:55:10.524Z,15.73
2022-10-19T10:56:10.510Z,15.89
2022-10-19T10:57:10.572Z,16.17
2022-10-19T10:58:10.494Z,16.33
2022-10-19T10:59:10.535Z,16.22
2022-10-19T11:00:10.475Z,16.13
2022-10-19T11:01:10.460Z,16.36
2022-10-19T11:02:10.602Z,16.36
2022-10-19T11:03:10.462Z,16.26
2022-10-19T11:04:10.427Z,16.16
2022-10-19T11:05:10.419Z,16.03
2022-10-19T11:06:10.409Z,15.84
2022-10-19T11:07:10.417Z,15.66
2022-10-19T11:08:10.409Z,15.59
2022-10-19T11:09:10.496Z,15.56
2022-10-19T11:10:10.363Z,15.55
2022-10-19T11:11:10.378Z,15.53
2022-10-19T11:12:11.272Z,15.49
2022-10-19T11:13:10.347Z,15.44
2022-10-19T11:14:10.317Z,15.41
2022-10-19T11:15:10.314Z,15.44
2022-10-19T11:16:10.302Z,15.43
2022-10-19T11:17:10.301Z,15.51
2022-10-19T11:18:10.276Z,15.64
2022-10-19T11:19:10.319Z,15.78
2022-10-19T11:20:10.260Z,15.91
2022-10-19T11:21:10.259Z,16.06
2022-10-19T11:22:10.255Z,16.17
2022-10-19T11:23:10.236Z,16.01
2022-10-19T11:24:10.218Z,15.89
2022-10-19T11:25:10.210Z,15.80
2022-10-19T11:26:10.195Z,15.80
2022-10-19T11:27:10.223Z,15.78
2022-10-19T11:28:10.179Z,15.84
2022-10-19T11:29:10.168Z,15.81
2022-10-19T11:30:10.153Z,15.76
2022-10-19T11:31:10.149Z,15.74
2022-10-19T11:32:10.139Z,15.84
2022-10-19T11:33:10.132Z,15.92
2022-10-19T11:34:10.110Z,15.96
2022-10-19T11:35:10.107Z,15.91
2022-10-19T11:36:10.091Z,15.92
2022-10-19T11:37:10.096Z,15.88
2022-10-19T11:38:29.873Z,15.86
2022-10-19T11:39:10.066Z,15.89
2022-10-19T11:40:10.052Z,15.92
2022-10-19T11:41:17.930Z,15.92
2022-10-19T11:42:10.040Z,15.91
2022-10-19T11:43:10.033Z,15.93
2022-10-19T11:44:10.011Z,15.95
2022-10-19T11:45:10.009Z,15.99
2022-10-19T11:46:09.988Z,15.99
2022-10-19T11:47:09.988Z,16.01
2022-10-19T11:48:09.971Z,16.07
2022-10-19T11:49:09.957Z,16.10
2022-10-19T11:51:21.037Z,16.07
2022-10-19T11:52:09.944Z,16.11
2022-10-19T11:53:09.925Z,16.14
2022-10-19T11:54:14.469Z,16.10
2022-10-19T11:55:09.902Z,16.03
2022-10-19T11:56:09.885Z,15.96
2022-10-19T11:57:11.626Z,15.92
2022-10-19T11:58:09.884Z,15.86
2022-10-19T11:59:09.863Z,15.84
2022-10-19T12:00:15.314Z,15.81
2022-10-19T12:01:09.849Z,15.78
2022-10-19T12:02:09.925Z,15.73
2022-10-19T12:03:09.815Z,15.68
2022-10-19T12:04:09.796Z,15.68
2022-10-19T12:05:09.795Z,15.66
2022-10-19T12:06:09.779Z,15.60
2022-10-19T12:07:09.813Z,15.59
2022-10-19T12:08:09.816Z,15.59
2022-10-19T12:09:09.818Z,15.59
2022-10-19T12:10:09.742Z,15.66
2022-10-19T12:11:09.738Z,16.23
2022-10-19T12:12:09.727Z,16.80
2022-10-19T12:13:09.717Z,16.95
2022-10-19T12:14:09.825Z,17.43
2022-10-19T12:15:09.687Z,18.07
2022-10-19T12:16:09.678Z,18.29
2022-10-19T12:17:09.740Z,18.26
2022-10-19T12:18:09.660Z,17.95
2022-10-19T12:19:09.655Z,17.81
2022-10-19T12:20:09.649Z,17.63
2022-10-19T12:21:09.629Z,17.60
2022-10-19T12:22:09.608Z,17.45
2022-10-19T12:23:09.616Z,17.35
2022-10-19T12:24:09.587Z,18.01
2022-10-19T12:25:09.581Z,18.07
2022-10-19T12:26:09.617Z,17.66
2022-10-19T12:27:09.561Z,17.32
2022-10-19T12:28:09.555Z,17.14
2022-10-19T12:29:09.543Z,17.05
2022-10-19T12:30:09.583Z,16.92
2022-10-19T12:31:09.534Z,16.85
2022-10-19T12:32:09.523Z,16.80
2022-10-19T12:33:09.565Z,16.75
2022-10-19T12:34:09.494Z,16.69
2022-10-19T12:35:09.552Z,16.69
2022-10-19T12:36:09.471Z,16.69
2022-10-19T12:37:09.468Z,16.73
2022-10-19T12:38:09.452Z,16.77
2022-10-19T12:39:09.443Z,17.10
2022-10-19T12:40:09.478Z,17.10
2022-10-19T12:41:09.428Z,17.39
2022-10-19T12:42:09.438Z,18.25
2022-10-19T12:43:09.399Z,18.19
2022-10-19T12:44:09.381Z,17.99
2022-10-19T12:45:09.381Z,17.76
2022-10-19T12:46:09.367Z,17.66
2022-10-19T12:47:09.372Z,18.01
2022-10-19T12:48:09.355Z,18.46
2022-10-19T12:49:09.335Z,18.69
2022-10-19T12:50:09.497Z,18.78
2022-10-19T12:51:09.318Z,18.84
2022-10-19T12:52:09.331Z,18.84
2022-10-19T12:53:09.294Z,18.76